sensor_id;sensor_type;location;lat;lon;timestamp;P1;durP1;ratioP1;P2;durP2;ratioP2
4597;SDS011;62772;48.646;8.906;2023-07-13T00:02:46;2.87;;;1.80;;
4597;SDS011;62772;48.646;8.906;2023-07-13T00:07:46;3.10;;;1.60;;
4597;SDS011;62772;48.646;8.906;2023-07-13T00:12:48;2.40;;;1.50;;
4597;SDS011;62772;48.646;8.906;2023-07-13T00:17:49;2.97;;;1.60;;
4597;SDS011;62772;48.646;8.906;2023-07-13T00:22:53;4.17;;;1.80;;
4597;SDS011;62772;48.646;8.906;2023-07-13T00:27:54;5.30;;;1.83;;
4597;SDS011;62772;48.646;8.906;2023-07-13T00:32:55;3.90;;;1.43;;
4597;SDS011;62772;48.646;8.906;2023-07-13T00:37:56;3.60;;;2.07;;
4597;SDS011;62772;48.646;8.906;2023-07-13T00:42:59;2.90;;;1.93;;
4597;SDS011;62772;48.646;8.906;2023-07-13T00:47:59;4.40;;;2.10;;
4597;SDS011;62772;48.646;8.906;2023-07-13T00:53:00;4.50;;;2.27;;
4597;SDS011;62772;48.646;8.906;2023-07-13T00:58:01;2.73;;;1.67;;
4597;SDS011;62772;48.646;8.906;2023-07-13T01:03:02;2.73;;;1.80;;
4597;SDS011;62772;48.646;8.906;2023-07-13T01:08:04;4.43;;;2.00;;
4597;SDS011;62772;48.646;8.906;2023-07-13T01:13:07;2.77;;;1.57;;
4597;SDS011;62772;48.646;8.906;2023-07-13T01:18:10;3.40;;;1.93;;
4597;SDS011;62772;48.646;8.906;2023-07-13T01:23:13;3.07;;;1.70;;
4597;SDS011;62772;48.646;8.906;2023-07-13T01:28:13;3.13;;;1.80;;
4597;SDS011;62772;48.646;8.906;2023-07-13T01:33:15;4.50;;;1.90;;
4597;SDS011;62772;48.646;8.906;2023-07-13T01:38:20;6.40;;;2.23;;
4597;SDS011;62772;48.646;8.906;2023-07-13T01:43:22;2.90;;;1.70;;
4597;SDS011;62772;48.646;8.906;2023-07-13T01:48:23;3.83;;;1.90;;
4597;SDS011;62772;48.646;8.906;2023-07-13T01:53:23;3.27;;;2.00;;
4597;SDS011;62772;48.646;8.906;2023-07-13T01:58:24;3.57;;;1.93;;
4597;SDS011;62772;48.646;8.906;2023-07-13T02:03:24;4.47;;;2.00;;
4597;SDS011;62772;48.646;8.906;2023-07-13T02:08:25;4.40;;;2.30;;
4597;SDS011;62772;48.646;8.906;2023-07-13T02:13:28;3.67;;;2.10;;
4597;SDS011;62772;48.646;8.906;2023-07-13T02:18:29;4.10;;;2.10;;
4597;SDS011;62772;48.646;8.906;2023-07-13T02:23:30;5.43;;;2.40;;
4597;SDS011;62772;48.646;8.906;2023-07-13T02:28:30;3.37;;;2.17;;
4597;SDS011;62772;48.646;8.906;2023-07-13T02:33:31;3.43;;;2.00;;
4597;SDS011;62772;48.646;8.906;2023-07-13T02:38:32;5.17;;;2.50;;
4597;SDS011;62772;48.646;8.906;2023-07-13T02:43:36;5.17;;;2.40;;
4597;SDS011;62772;48.646;8.906;2023-07-13T02:48:38;3.10;;;2.20;;
4597;SDS011;62772;48.646;8.906;2023-07-13T02:53:39;4.13;;;2.50;;
4597;SDS011;62772;48.646;8.906;2023-07-13T02:58:39;6.53;;;2.53;;
4597;SDS011;62772;48.646;8.906;2023-07-13T03:03:41;5.37;;;2.60;;
4597;SDS011;62772;48.646;8.906;2023-07-13T03:08:42;5.13;;;2.60;;
4597;SDS011;62772;48.646;8.906;2023-07-13T03:13:44;4.20;;;2.40;;
4597;SDS011;62772;48.646;8.906;2023-07-13T03:18:46;4.50;;;2.50;;
4597;SDS011;62772;48.646;8.906;2023-07-13T03:23:47;4.17;;;2.60;;
4597;SDS011;62772;48.646;8.906;2023-07-13T03:28:48;5.50;;;2.73;;
4597;SDS011;62772;48.646;8.906;2023-07-13T03:33:52;6.87;;;2.97;;
4597;SDS011;62772;48.646;8.906;2023-07-13T03:38:54;4.20;;;2.23;;
4597;SDS011;62772;48.646;8.906;2023-07-13T03:44:00;5.20;;;2.40;;
4597;SDS011;62772;48.646;8.906;2023-07-13T03:49:01;4.93;;;2.60;;
4597;SDS011;62772;48.646;8.906;2023-07-13T03:54:04;5.57;;;2.90;;
4597;SDS011;62772;48.646;8.906;2023-07-13T03:59:05;4.67;;;3.20;;
4597;SDS011;62772;48.646;8.906;2023-07-13T04:04:05;4.83;;;2.70;;
4597;SDS011;62772;48.646;8.906;2023-07-13T04:09:06;5.17;;;2.80;;
4597;SDS011;62772;48.646;8.906;2023-07-13T04:14:06;9.63;;;3.17;;
4597;SDS011;62772;48.646;8.906;2023-07-13T04:19:08;4.67;;;2.60;;
4597;SDS011;62772;48.646;8.906;2023-07-13T04:24:10;3.73;;;2.50;;
4597;SDS011;62772;48.646;8.906;2023-07-13T04:29:10;4.20;;;2.77;;
4597;SDS011;62772;48.646;8.906;2023-07-13T04:34:11;3.40;;;2.50;;
4597;SDS011;62772;48.646;8.906;2023-07-13T04:39:11;5.00;;;3.33;;
4597;SDS011;62772;48.646;8.906;2023-07-13T04:44:12;4.57;;;2.90;;
4597;SDS011;62772;48.646;8.906;2023-07-13T04:49:12;6.10;;;2.63;;
4597;SDS011;62772;48.646;8.906;2023-07-13T04:54:12;5.20;;;2.87;;
4597;SDS011;62772;48.646;8.906;2023-07-13T04:59:13;4.90;;;2.63;;
4597;SDS011;62772;48.646;8.906;2023-07-13T05:04:13;4.60;;;2.67;;
4597;SDS011;62772;48.646;8.906;2023-07-13T05:09:14;4.33;;;2.83;;
4597;SDS011;62772;48.646;8.906;2023-07-13T05:14:14;4.80;;;2.77;;
4597;SDS011;62772;48.646;8.906;2023-07-13T05:19:16;4.13;;;2.70;;
4597;SDS011;62772;48.646;8.906;2023-07-13T05:24:16;6.13;;;2.47;;
4597;SDS011;62772;48.646;8.906;2023-07-13T05:29:17;10.63;;;3.30;;
4597;SDS011;62772;48.646;8.906;2023-07-13T05:34:17;3.40;;;2.47;;
4597;SDS011;62772;48.646;8.906;2023-07-13T05:39:18;4.53;;;2.73;;
4597;SDS011;62772;48.646;8.906;2023-07-13T05:44:19;5.30;;;3.03;;
4597;SDS011;62772;48.646;8.906;2023-07-13T05:49:19;6.07;;;3.50;;
4597;SDS011;62772;48.646;8.906;2023-07-13T05:54:20;4.83;;;2.67;;
4597;SDS011;62772;48.646;8.906;2023-07-13T05:59:20;5.57;;;2.97;;
4597;SDS011;62772;48.646;8.906;2023-07-13T06:04:20;5.17;;;3.10;;
4597;SDS011;62772;48.646;8.906;2023-07-13T06:09:21;6.23;;;2.77;;
4597;SDS011;62772;48.646;8.906;2023-07-13T06:14:21;5.80;;;2.90;;
4597;SDS011;62772;48.646;8.906;2023-07-13T06:19:22;4.63;;;2.70;;
4597;SDS011;62772;48.646;8.906;2023-07-13T06:24:22;4.03;;;2.80;;
4597;SDS011;62772;48.646;8.906;2023-07-13T06:29:23;7.63;;;2.60;;
4597;SDS011;62772;48.646;8.906;2023-07-13T06:34:23;5.90;;;2.77;;
4597;SDS011;62772;48.646;8.906;2023-07-13T06:39:23;3.73;;;2.20;;
4597;SDS011;62772;48.646;8.906;2023-07-13T06:44:25;5.53;;;2.50;;
4597;SDS011;62772;48.646;8.906;2023-07-13T06:49:25;8.00;;;2.60;;
4597;SDS011;62772;48.646;8.906;2023-07-13T06:54:26;7.80;;;2.27;;
4597;SDS011;62772;48.646;8.906;2023-07-13T06:59:26;4.60;;;2.60;;
4597;SDS011;62772;48.646;8.906;2023-07-13T07:04:27;4.70;;;2.40;;
4597;SDS011;62772;48.646;8.906;2023-07-13T07:09:27;4.10;;;2.40;;
4597;SDS011;62772;48.646;8.906;2023-07-13T07:14:30;5.30;;;2.60;;
4597;SDS011;62772;48.646;8.906;2023-07-13T07:19:31;5.20;;;2.27;;
4597;SDS011;62772;48.646;8.906;2023-07-13T07:24:32;6.93;;;2.43;;
4597;SDS011;62772;48.646;8.906;2023-07-13T07:29:32;3.67;;;2.00;;
4597;SDS011;62772;48.646;8.906;2023-07-13T07:34:33;4.77;;;2.20;;
4597;SDS011;62772;48.646;8.906;2023-07-13T07:39:33;5.00;;;2.10;;
4597;SDS011;62772;48.646;8.906;2023-07-13T07:44:34;5.20;;;2.20;;
4597;SDS011;62772;48.646;8.906;2023-07-13T07:49:35;3.83;;;2.30;;
4597;SDS011;62772;48.646;8.906;2023-07-13T07:54:37;4.47;;;2.20;;
4597;SDS011;62772;48.646;8.906;2023-07-13T07:59:37;4.23;;;2.50;;
4597;SDS011;62772;48.646;8.906;2023-07-13T08:04:38;2.87;;;1.70;;
4597;SDS011;62772;48.646;8.906;2023-07-13T08:09:38;3.80;;;2.13;;
4597;SDS011;62772;48.646;8.906;2023-07-13T08:14:39;2.53;;;1.70;;
4597;SDS011;62772;48.646;8.906;2023-07-13T08:19:39;5.03;;;1.93;;
4597;SDS011;62772;48.646;8.906;2023-07-13T08:24:40;5.43;;;1.90;;
4597;SDS011;62772;48.646;8.906;2023-07-13T08:29:42;3.40;;;1.97;;
4597;SDS011;62772;48.646;8.906;2023-07-13T08:34:43;3.23;;;2.07;;
4597;SDS011;62772;48.646;8.906;2023-07-13T08:39:44;5.57;;;1.90;;
4597;SDS011;62772;48.646;8.906;2023-07-13T08:45:04;4.67;;;1.90;;
4597;SDS011;62772;48.646;8.906;2023-07-13T08:50:14;3.30;;;2.30;;
4597;SDS011;62772;48.646;8.906;2023-07-13T08:55:24;3.33;;;2.07;;
4597;SDS011;62772;48.646;8.906;2023-07-13T09:00:33;3.30;;;1.80;;
4597;SDS011;62772;48.646;8.906;2023-07-13T09:05:41;3.00;;;1.60;;
4597;SDS011;62772;48.646;8.906;2023-07-13T09:10:46;3.80;;;2.13;;
4597;SDS011;62772;48.646;8.906;2023-07-13T09:15:52;3.33;;;2.10;;
4597;SDS011;62772;48.646;8.906;2023-07-13T09:20:57;4.60;;;1.80;;
4597;SDS011;62772;48.646;8.906;2023-07-13T09:26:14;4.73;;;2.23;;
4597;SDS011;62772;48.646;8.906;2023-07-13T09:31:18;4.13;;;2.00;;
4597;SDS011;62772;48.646;8.906;2023-07-13T09:36:33;3.60;;;1.70;;
4597;SDS011;62772;48.646;8.906;2023-07-13T09:46:53;4.60;;;2.47;;
4597;SDS011;62772;48.646;8.906;2023-07-13T09:51:59;5.57;;;1.90;;
4597;SDS011;62772;48.646;8.906;2023-07-13T09:57:03;4.40;;;1.97;;
4597;SDS011;62772;48.646;8.906;2023-07-13T10:02:31;3.67;;;1.93;;
4597;SDS011;62772;48.646;8.906;2023-07-13T10:07:38;8.00;;;2.43;;
4597;SDS011;62772;48.646;8.906;2023-07-13T10:12:40;4.40;;;2.10;;
4597;SDS011;62772;48.646;8.906;2023-07-13T10:17:41;2.40;;;1.63;;
4597;SDS011;62772;48.646;8.906;2023-07-13T10:22:45;2.20;;;1.60;;
4597;SDS011;62772;48.646;8.906;2023-07-13T10:27:53;4.50;;;2.10;;
4597;SDS011;62772;48.646;8.906;2023-07-13T10:32:59;2.90;;;1.70;;
4597;SDS011;62772;48.646;8.906;2023-07-13T10:38:04;9.43;;;2.10;;
4597;SDS011;62772;48.646;8.906;2023-07-13T10:43:16;4.13;;;2.23;;
4597;SDS011;62772;48.646;8.906;2023-07-13T10:48:24;2.73;;;1.70;;
4597;SDS011;62772;48.646;8.906;2023-07-13T10:53:29;3.20;;;1.80;;
4597;SDS011;62772;48.646;8.906;2023-07-13T11:04:00;4.37;;;2.07;;
4597;SDS011;62772;48.646;8.906;2023-07-13T11:14:37;4.47;;;1.87;;
4597;SDS011;62772;48.646;8.906;2023-07-13T11:19:43;6.00;;;1.60;;
4597;SDS011;62772;48.646;8.906;2023-07-13T11:24:48;6.47;;;1.80;;
4597;SDS011;62772;48.646;8.906;2023-07-13T11:29:48;2.53;;;1.43;;
4597;SDS011;62772;48.646;8.906;2023-07-13T11:34:49;2.87;;;1.40;;
4597;SDS011;62772;48.646;8.906;2023-07-13T11:39:50;4.00;;;1.80;;
4597;SDS011;62772;48.646;8.906;2023-07-13T11:44:52;2.67;;;1.73;;
4597;SDS011;62772;48.646;8.906;2023-07-13T11:49:54;3.57;;;1.80;;
4597;SDS011;62772;48.646;8.906;2023-07-13T11:55:00;5.03;;;1.63;;
4597;SDS011;62772;48.646;8.906;2023-07-13T12:00:11;2.87;;;1.83;;
4597;SDS011;62772;48.646;8.906;2023-07-13T12:05:15;3.33;;;1.50;;
4597;SDS011;62772;48.646;8.906;2023-07-13T12:10:28;3.87;;;2.00;;
4597;SDS011;62772;48.646;8.906;2023-07-13T12:15:33;3.30;;;1.77;;
4597;SDS011;62772;48.646;8.906;2023-07-13T12:20:38;3.17;;;1.60;;
4597;SDS011;62772;48.646;8.906;2023-07-13T12:25:39;4.10;;;1.80;;
4597;SDS011;62772;48.646;8.906;2023-07-13T12:30:39;2.40;;;1.40;;
4597;SDS011;62772;48.646;8.906;2023-07-13T12:35:42;8.83;;;2.30;;
4597;SDS011;62772;48.646;8.906;2023-07-13T12:40:48;4.47;;;1.65;;
4597;SDS011;62772;48.646;8.906;2023-07-13T12:46:01;2.47;;;1.50;;
4597;SDS011;62772;48.646;8.906;2023-07-13T12:51:08;3.00;;;1.47;;
4597;SDS011;62772;48.646;8.906;2023-07-13T12:56:27;2.47;;;1.70;;
4597;SDS011;62772;48.646;8.906;2023-07-13T13:01:28;3.20;;;1.58;;
4597;SDS011;62772;48.646;8.906;2023-07-13T13:06:32;3.97;;;1.50;;
4597;SDS011;62772;48.646;8.906;2023-07-13T13:11:33;3.47;;;1.57;;
4597;SDS011;62772;48.646;8.906;2023-07-13T13:16:35;2.38;;;1.52;;
4597;SDS011;62772;48.646;8.906;2023-07-13T13:21:43;2.30;;;1.52;;
4597;SDS011;62772;48.646;8.906;2023-07-13T13:26:45;2.50;;;1.65;;
4597;SDS011;62772;48.646;8.906;2023-07-13T13:31:46;3.50;;;1.70;;
4597;SDS011;62772;48.646;8.906;2023-07-13T13:36:47;3.90;;;1.80;;
4597;SDS011;62772;48.646;8.906;2023-07-13T13:41:48;7.22;;;2.08;;
4597;SDS011;62772;48.646;8.906;2023-07-13T13:46:50;4.57;;;2.10;;
4597;SDS011;62772;48.646;8.906;2023-07-13T13:51:53;4.75;;;2.22;;
4597;SDS011;62772;48.646;8.906;2023-07-13T13:56:54;4.23;;;2.30;;
4597;SDS011;62772;48.646;8.906;2023-07-13T14:01:55;5.15;;;1.98;;
4597;SDS011;62772;48.646;8.906;2023-07-13T14:07:00;3.10;;;1.50;;
4597;SDS011;62772;48.646;8.906;2023-07-13T14:12:00;2.58;;;1.83;;
4597;SDS011;62772;48.646;8.906;2023-07-13T14:17:01;3.67;;;1.90;;
4597;SDS011;62772;48.646;8.906;2023-07-13T14:22:01;3.03;;;1.50;;
4597;SDS011;62772;48.646;8.906;2023-07-13T14:27:02;2.40;;;1.50;;
4597;SDS011;62772;48.646;8.906;2023-07-13T14:32:02;4.00;;;2.20;;
4597;SDS011;62772;48.646;8.906;2023-07-13T14:37:05;3.00;;;1.80;;
4597;SDS011;62772;48.646;8.906;2023-07-13T14:42:12;3.63;;;2.30;;
4597;SDS011;62772;48.646;8.906;2023-07-13T14:47:12;3.40;;;1.87;;
4597;SDS011;62772;48.646;8.906;2023-07-13T14:52:16;5.00;;;2.00;;
4597;SDS011;62772;48.646;8.906;2023-07-13T14:57:22;3.47;;;2.00;;
4597;SDS011;62772;48.646;8.906;2023-07-13T15:02:30;3.80;;;2.07;;
4597;SDS011;62772;48.646;8.906;2023-07-13T15:07:32;3.83;;;2.10;;
4597;SDS011;62772;48.646;8.906;2023-07-13T15:12:33;9.30;;;1.97;;
4597;SDS011;62772;48.646;8.906;2023-07-13T15:17:44;2.60;;;1.63;;
4597;SDS011;62772;48.646;8.906;2023-07-13T15:22:46;4.43;;;2.00;;
4597;SDS011;62772;48.646;8.906;2023-07-13T15:27:48;3.67;;;1.80;;
4597;SDS011;62772;48.646;8.906;2023-07-13T15:32:49;2.90;;;1.80;;
4597;SDS011;62772;48.646;8.906;2023-07-13T15:37:51;4.60;;;2.10;;
4597;SDS011;62772;48.646;8.906;2023-07-13T15:42:52;8.37;;;2.20;;
4597;SDS011;62772;48.646;8.906;2023-07-13T15:47:52;2.80;;;1.87;;
4597;SDS011;62772;48.646;8.906;2023-07-13T15:52:53;3.93;;;2.00;;
4597;SDS011;62772;48.646;8.906;2023-07-13T15:57:55;4.23;;;2.40;;
4597;SDS011;62772;48.646;8.906;2023-07-13T16:02:56;3.73;;;2.13;;
4597;SDS011;62772;48.646;8.906;2023-07-13T16:07:56;5.63;;;2.20;;
4597;SDS011;62772;48.646;8.906;2023-07-13T16:12:57;3.90;;;2.03;;
4597;SDS011;62772;48.646;8.906;2023-07-13T16:17:58;5.80;;;1.83;;
4597;SDS011;62772;48.646;8.906;2023-07-13T16:22:59;3.83;;;1.73;;
4597;SDS011;62772;48.646;8.906;2023-07-13T16:28:03;2.80;;;1.80;;
4597;SDS011;62772;48.646;8.906;2023-07-13T16:33:05;4.60;;;1.90;;
4597;SDS011;62772;48.646;8.906;2023-07-13T16:50:14;3.07;;;1.83;;
4597;SDS011;62772;48.646;8.906;2023-07-13T16:55:17;9.53;;;2.03;;
4597;SDS011;62772;48.646;8.906;2023-07-13T17:00:28;3.97;;;2.10;;
4597;SDS011;62772;48.646;8.906;2023-07-13T17:05:31;4.20;;;1.80;;
4597;SDS011;62772;48.646;8.906;2023-07-13T17:10:35;3.90;;;1.83;;
4597;SDS011;62772;48.646;8.906;2023-07-13T17:15:36;2.90;;;1.97;;
4597;SDS011;62772;48.646;8.906;2023-07-13T17:20:41;4.30;;;1.90;;
4597;SDS011;62772;48.646;8.906;2023-07-13T17:25:45;3.57;;;1.60;;
4597;SDS011;62772;48.646;8.906;2023-07-13T17:30:48;3.40;;;1.87;;
4597;SDS011;62772;48.646;8.906;2023-07-13T17:35:50;3.97;;;2.00;;
4597;SDS011;62772;48.646;8.906;2023-07-13T17:46:54;4.67;;;1.97;;
4597;SDS011;62772;48.646;8.906;2023-07-13T17:51:55;4.80;;;2.30;;
4597;SDS011;62772;48.646;8.906;2023-07-13T17:56:56;3.83;;;2.10;;
4597;SDS011;62772;48.646;8.906;2023-07-13T18:01:56;5.10;;;2.20;;
4597;SDS011;62772;48.646;8.906;2023-07-13T18:06:57;5.27;;;1.90;;
4597;SDS011;62772;48.646;8.906;2023-07-13T18:12:08;3.57;;;1.90;;
4597;SDS011;62772;48.646;8.906;2023-07-13T18:17:10;4.50;;;2.30;;
4597;SDS011;62772;48.646;8.906;2023-07-13T18:22:14;3.87;;;1.90;;
4597;SDS011;62772;48.646;8.906;2023-07-13T18:27:16;5.13;;;2.07;;
4597;SDS011;62772;48.646;8.906;2023-07-13T18:32:17;4.93;;;2.30;;
4597;SDS011;62772;48.646;8.906;2023-07-13T18:37:20;4.87;;;2.17;;
4597;SDS011;62772;48.646;8.906;2023-07-13T18:42:22;5.77;;;2.10;;
4597;SDS011;62772;48.646;8.906;2023-07-13T18:47:24;4.20;;;2.20;;
4597;SDS011;62772;48.646;8.906;2023-07-13T18:52:29;4.77;;;2.20;;
4597;SDS011;62772;48.646;8.906;2023-07-13T18:57:30;4.03;;;2.20;;
4597;SDS011;62772;48.646;8.906;2023-07-13T19:02:31;4.90;;;2.33;;
4597;SDS011;62772;48.646;8.906;2023-07-13T19:07:31;5.03;;;2.13;;
4597;SDS011;62772;48.646;8.906;2023-07-13T19:12:33;3.00;;;1.93;;
4597;SDS011;62772;48.646;8.906;2023-07-13T19:17:33;3.27;;;2.03;;
4597;SDS011;62772;48.646;8.906;2023-07-13T19:22:33;4.17;;;2.40;;
4597;SDS011;62772;48.646;8.906;2023-07-13T19:27:34;3.10;;;2.00;;
4597;SDS011;62772;48.646;8.906;2023-07-13T19:32:35;3.20;;;2.20;;
4597;SDS011;62772;48.646;8.906;2023-07-13T19:37:35;4.73;;;2.10;;
4597;SDS011;62772;48.646;8.906;2023-07-13T19:42:36;5.63;;;2.20;;
4597;SDS011;62772;48.646;8.906;2023-07-13T19:47:37;3.97;;;2.30;;
4597;SDS011;62772;48.646;8.906;2023-07-13T20:04:44;4.90;;;2.37;;
4597;SDS011;62772;48.646;8.906;2023-07-13T20:09:45;4.13;;;2.60;;
4597;SDS011;62772;48.646;8.906;2023-07-13T20:14:48;3.60;;;2.27;;
4597;SDS011;62772;48.646;8.906;2023-07-13T20:37:50;3.90;;;2.50;;
4597;SDS011;62772;48.646;8.906;2023-07-13T20:42:51;4.80;;;2.40;;
4597;SDS011;62772;48.646;8.906;2023-07-13T20:47:51;5.10;;;2.60;;
4597;SDS011;62772;48.646;8.906;2023-07-13T20:52:55;4.20;;;2.80;;
4597;SDS011;62772;48.646;8.906;2023-07-13T21:04:04;3.37;;;2.40;;
4597;SDS011;62772;48.646;8.906;2023-07-13T21:09:18;5.17;;;2.73;;
4597;SDS011;62772;48.646;8.906;2023-07-13T21:14:19;3.77;;;2.40;;
4597;SDS011;62772;48.646;8.906;2023-07-13T21:19:24;5.40;;;3.00;;
4597;SDS011;62772;48.646;8.906;2023-07-13T21:24:24;3.53;;;2.50;;
4597;SDS011;62772;48.646;8.906;2023-07-13T21:29:25;5.13;;;2.80;;
4597;SDS011;62772;48.646;8.906;2023-07-13T21:34:25;4.77;;;2.80;;
4597;SDS011;62772;48.646;8.906;2023-07-13T21:39:26;4.87;;;2.63;;
4597;SDS011;62772;48.646;8.906;2023-07-13T21:44:30;5.00;;;2.97;;
4597;SDS011;62772;48.646;8.906;2023-07-13T21:49:31;4.60;;;3.00;;
4597;SDS011;62772;48.646;8.906;2023-07-13T21:54:31;3.77;;;2.50;;
4597;SDS011;62772;48.646;8.906;2023-07-13T21:59:32;5.67;;;2.53;;
4597;SDS011;62772;48.646;8.906;2023-07-13T22:04:32;5.77;;;2.53;;
4597;SDS011;62772;48.646;8.906;2023-07-13T22:09:33;4.60;;;2.73;;
4597;SDS011;62772;48.646;8.906;2023-07-13T22:14:33;4.47;;;2.80;;
4597;SDS011;62772;48.646;8.906;2023-07-13T22:19:34;4.50;;;2.80;;
4597;SDS011;62772;48.646;8.906;2023-07-13T22:24:34;7.23;;;2.90;;
4597;SDS011;62772;48.646;8.906;2023-07-13T22:29:35;4.60;;;2.43;;
4597;SDS011;62772;48.646;8.906;2023-07-13T22:34:35;5.40;;;2.80;;
4597;SDS011;62772;48.646;8.906;2023-07-13T22:39:36;5.87;;;3.20;;
4597;SDS011;62772;48.646;8.906;2023-07-13T22:44:37;6.17;;;3.03;;
4597;SDS011;62772;48.646;8.906;2023-07-13T22:49:37;7.03;;;3.20;;
4597;SDS011;62772;48.646;8.906;2023-07-13T22:54:38;7.00;;;3.13;;
4597;SDS011;62772;48.646;8.906;2023-07-13T22:59:40;5.47;;;2.97;;
4597;SDS011;62772;48.646;8.906;2023-07-13T23:04:40;4.37;;;2.70;;
4597;SDS011;62772;48.646;8.906;2023-07-13T23:15:53;4.60;;;3.03;;
4597;SDS011;62772;48.646;8.906;2023-07-13T23:20:55;5.27;;;2.67;;
4597;SDS011;62772;48.646;8.906;2023-07-13T23:25:56;4.80;;;2.83;;
4597;SDS011;62772;48.646;8.906;2023-07-13T23:30:56;3.70;;;2.60;;
4597;SDS011;62772;48.646;8.906;2023-07-13T23:35:57;4.13;;;2.83;;
4597;SDS011;62772;48.646;8.906;2023-07-13T23:41:00;7.57;;;3.50;;
4597;SDS011;62772;48.646;8.906;2023-07-13T23:46:01;6.00;;;3.00;;
4597;SDS011;62772;48.646;8.906;2023-07-13T23:51:01;3.90;;;2.83;;
4597;SDS011;62772;48.646;8.906;2023-07-13T23:56:04;4.70;;;3.03;;
